Time;durP1;ratioP1;P1;durP2;ratioP2;P2;SDS_P1;SDS_P2;PMS_P1;PMS_P2;Temp;Humidity;BMP_temperature;BMP_pressure;BME280_temperature;BME280_humidity;BME280_pressure;Samples;Min_cycle;Max_cycle;Signal;HPM_P1;HPM_P2
2022/05/17 00:01:25;;;;;;;10.10;3.87;;;20.80;1.00;;;;;;5076376;28;20726;-86
2022/05/17 00:03:55;;;;;;;8.77;3.40;;;20.70;1.00;;;;;;5075573;28;20159;-82
2022/05/17 00:06:22;;;;;;;7.90;3.30;;;20.60;1.00;;;;;;5075519;28;20599;-82
2022/05/17 00:08:47;;;;;;;8.50;3.40;;;20.60;1.00;;;;;;5074587;28;20543;-78
2022/05/17 00:11:15;;;;;;;6.27;3.10;;;20.60;1.00;;;;;;5075404;28;20170;-84
2022/05/17 00:13:41;;;;;;;9.67;3.77;;;20.60;1.00;;;;;;5075946;28;20190;-84
2022/05/17 00:16:06;;;;;;;7.77;3.30;;;20.70;1.00;;;;;;5075628;28;20231;-83
2022/05/17 00:18:33;;;;;;;6.77;3.10;;;20.80;1.00;;;;;;5077236;28;20180;-84
2022/05/17 00:20:59;;;;;;;9.73;3.77;;;20.80;1.00;;;;;;5082487;28;20169;-82
2022/05/17 00:23:25;;;;;;;7.50;3.43;;;20.80;1.00;;;;;;5080690;28;20184;-87
2022/05/17 00:25:51;;;;;;;7.17;3.67;;;20.80;1.00;;;;;;5079364;28;20148;-78
2022/05/17 00:28:19;;;;;;;7.67;3.40;;;20.70;1.00;;;;;;5076769;28;20181;-85
2022/05/17 00:30:46;;;;;;;6.97;3.33;;;20.50;1.00;;;;;;5075010;28;20180;-81
2022/05/17 00:33:12;;;;;;;8.47;4.13;;;20.50;1.00;;;;;;5075155;28;20207;-81
2022/05/17 00:35:38;;;;;;;5.97;3.30;;;20.60;1.00;;;;;;5073260;28;20320;-81
2022/05/17 00:38:04;;;;;;;10.13;3.50;;;20.60;1.00;;;;;;5074629;28;20692;-85
2022/05/17 00:40:30;;;;;;;7.30;3.23;;;20.60;1.00;;;;;;5077661;28;20165;-84
2022/05/17 00:42:56;;;;;;;6.20;3.23;;;20.50;1.00;;;;;;5080133;28;20168;-80
2022/05/17 00:45:22;;;;;;;8.67;3.17;;;20.30;1.00;;;;;;5087947;28;20175;-78
2022/05/17 00:48:04;;;;;;;7.40;3.63;;;20.30;1.00;;;;;;5083985;28;20632;-85
2022/05/17 00:50:43;;;;;;;10.57;4.50;;;20.40;1.00;;;;;;5086069;28;20217;-79
2022/05/17 00:53:18;;;;;;;12.70;8.50;;;20.50;1.00;;;;;;5081101;28;20260;-81
2022/05/17 00:55:58;;;;;;;12.37;9.70;;;20.50;1.00;;;;;;5075451;28;20254;-82
2022/05/17 00:58:32;;;;;;;17.67;11.60;;;20.40;1.00;;;;;;5075411;28;20260;-86
2022/05/17 01:01:06;;;;;;;13.23;9.07;;;20.40;1.00;;;;;;5075427;28;20620;-84
2022/05/17 01:03:53;;;;;;;12.93;7.30;;;20.50;1.00;;;;;;5076364;28;20192;-83
2022/05/17 01:06:20;;;;;;;15.47;6.50;;;20.50;1.00;;;;;;5074323;28;20165;-84
2022/05/17 01:08:46;;;;;;;10.60;5.13;;;20.50;1.00;;;;;;5073734;28;20550;-80
2022/05/17 01:11:13;;;;;;;11.13;4.77;;;20.50;1.00;;;;;;5083900;28;20167;-79
2022/05/17 01:16:25;;;;;;;6.53;3.93;;;20.50;1.00;;;;;;5073775;28;20549;-81
2022/05/17 01:18:51;;;;;;;7.57;3.90;;;20.50;1.00;;;;;;5073504;28;20191;-84
2022/05/17 01:21:18;;;;;;;7.47;4.43;;;20.50;1.00;;;;;;5073778;28;20183;-82
2022/05/17 01:23:44;;;;;;;10.20;4.70;;;20.50;1.00;;;;;;5073811;28;20238;-82
2022/05/17 01:26:20;;;;;;;8.53;4.10;;;20.40;1.00;;;;;;5072748;28;20578;-84
2022/05/17 01:28:47;;;;;;;9.73;3.90;;;20.30;1.00;;;;;;5073594;28;20257;-79
2022/05/17 01:31:13;;;;;;;8.27;3.20;;;20.30;1.00;;;;;;5073554;28;20214;-85
2022/05/17 01:33:39;;;;;;;7.43;3.50;;;20.40;1.00;;;;;;5073859;28;20224;-80
2022/05/17 01:36:07;;;;;;;7.33;3.17;;;20.50;1.00;;;;;;5073978;28;20168;-85
2022/05/17 01:38:33;;;;;;;7.17;3.00;;;20.50;1.00;;;;;;5074316;28;20183;-85
2022/05/17 01:40:59;;;;;;;6.67;2.87;;;20.50;1.00;;;;;;5072665;28;20263;-83
2022/05/17 01:43:25;;;;;;;6.77;3.10;;;20.40;1.00;;;;;;5074166;28;20166;-84
2022/05/17 01:45:51;;;;;;;8.23;3.03;;;20.40;1.00;;;;;;5075290;28;20541;-83
2022/05/17 01:48:17;;;;;;;7.33;3.13;;;20.50;1.00;;;;;;5078654;28;20212;-86
2022/05/17 01:50:43;;;;;;;8.73;3.13;;;20.60;1.00;;;;;;5078673;28;20254;-86
2022/05/17 01:53:09;;;;;;;10.83;3.37;;;20.70;1.00;;;;;;5073642;28;20203;-81
2022/05/17 01:55:35;;;;;;;8.20;2.90;;;20.60;1.00;;;;;;5075851;28;20732;-78
2022/05/17 01:58:01;;;;;;;8.63;3.07;;;20.50;1.00;;;;;;5076416;28;20369;-81
2022/05/17 02:00:27;;;;;;;7.40;3.10;;;20.60;1.00;;;;;;5077464;28;20585;-79
2022/05/17 02:02:52;;;;;;;9.80;3.17;;;20.50;1.00;;;;;;5076407;28;20653;-86
2022/05/17 02:05:23;;;;;;;6.50;2.90;;;20.60;1.00;;;;;;5076934;28;20549;-80
2022/05/17 02:07:50;;;;;;;7.83;3.33;;;20.60;1.00;;;;;;5078126;28;20187;-82
2022/05/17 02:10:18;;;;;;;7.73;3.20;;;20.60;1.00;;;;;;5079278;28;20190;-80
2022/05/17 02:12:44;;;;;;;6.00;2.73;;;20.70;1.00;;;;;;5078202;28;20542;-80
2022/05/17 02:15:11;;;;;;;8.43;3.30;;;20.70;1.00;;;;;;5078845;28;20246;-80
2022/05/17 02:17:37;;;;;;;7.23;2.70;;;20.60;1.00;;;;;;5089206;28;20164;-80
2022/05/17 02:20:05;;;;;;;10.47;3.20;;;20.60;1.00;;;;;;5089562;28;20174;-82
2022/05/17 02:22:37;;;;;;;6.23;2.90;;;20.60;1.00;;;;;;5084467;28;20173;-81
2022/05/17 02:25:18;;;;;;;8.93;3.13;;;20.60;1.00;;;;;;5078686;28;20163;-84
2022/05/17 02:27:43;;;;;;;8.27;3.07;;;20.50;1.00;;;;;;5076707;28;20198;-85
2022/05/17 02:30:11;;;;;;;6.20;3.07;;;20.50;1.00;;;;;;5077149;28;20547;-86
2022/05/17 02:32:37;;;;;;;6.67;2.70;;;20.60;1.00;;;;;;5076966;28;20269;-85
2022/05/17 02:35:05;;;;;;;7.60;2.60;;;20.60;1.00;;;;;;5076789;28;20204;-80
2022/05/17 02:37:31;;;;;;;8.20;2.60;;;20.60;1.00;;;;;;5077112;28;20179;-82
2022/05/17 02:39:57;;;;;;;6.63;2.70;;;20.70;1.00;;;;;;5074805;28;20215;-86
2022/05/17 02:42:22;;;;;;;9.07;2.20;;;20.70;1.00;;;;;;5076711;28;20172;-80
2022/05/17 02:44:48;;;;;;;5.80;2.20;;;20.70;1.00;;;;;;5077262;28;20202;-83
2022/05/17 02:47:14;;;;;;;5.67;2.13;;;20.80;1.00;;;;;;5076645;28;20168;-78
2022/05/17 02:49:40;;;;;;;7.20;2.10;;;20.80;1.00;;;;;;5076914;28;20179;-78
2022/05/17 02:52:07;;;;;;;5.30;1.97;;;20.80;1.00;;;;;;5076792;28;20542;-77
2022/05/17 02:54:33;;;;;;;10.27;2.47;;;20.80;99.90;;;;;;5076537;28;20241;-86
2022/05/17 02:56:59;;;;;;;5.80;2.17;;;20.80;99.90;;;;;;5076743;28;20615;-81
2022/05/17 02:59:25;;;;;;;8.10;2.17;;;20.80;99.90;;;;;;5075092;28;20636;-83
2022/05/17 03:01:51;;;;;;;6.70;1.83;;;20.80;99.90;;;;;;5076897;28;20601;-83
2022/05/17 03:04:17;;;;;;;5.97;1.67;;;20.80;99.90;;;;;;5076937;28;20167;-84
2022/05/17 03:06:44;;;;;;;5.87;2.17;;;20.80;99.90;;;;;;5074772;28;20694;-83
2022/05/17 03:09:11;;;;;;;4.53;2.07;;;20.80;99.90;;;;;;5076316;28;20182;-78
2022/05/17 03:11:41;;;;;;;6.43;2.50;;;20.50;1.00;;;;;;5076929;28;20176;-80
2022/05/17 03:14:10;;;;;;;5.23;2.20;;;20.40;1.00;;;;;;5078780;28;20707;-80
2022/05/17 03:16:36;;;;;;;5.77;2.00;;;20.20;1.00;;;;;;5076165;28;20196;-85
2022/05/17 03:19:04;;;;;;;7.83;1.90;;;20.40;1.00;;;;;;5074785;28;20728;-85
2022/05/17 03:21:30;;;;;;;6.33;1.97;;;20.40;1.00;;;;;;5075793;28;20168;-84
2022/05/17 03:23:55;;;;;;;8.53;2.33;;;20.50;1.00;;;;;;5075792;28;20208;-83
2022/05/17 03:26:21;;;;;;;4.47;2.10;;;20.60;99.90;;;;;;5076221;28;20175;-83
2022/05/17 03:28:47;;;;;;;6.10;2.10;;;20.60;99.90;;;;;;5077653;28;20174;-79
2022/05/17 03:31:13;;;;;;;6.50;2.77;;;20.40;1.00;;;;;;5076176;28;20197;-81
2022/05/17 03:33:39;;;;;;;8.17;2.30;;;20.30;1.00;;;;;;5074767;28;20313;-77
2022/05/17 03:36:07;;;;;;;8.13;2.30;;;20.30;1.00;;;;;;5077335;28;20186;-84
2022/05/17 03:38:34;;;;;;;4.93;2.30;;;20.40;1.00;;;;;;5076939;28;20168;-79
2022/05/17 03:41:00;;;;;;;5.83;2.30;;;20.50;1.00;;;;;;5076357;28;20178;-85
2022/05/17 03:43:27;;;;;;;6.70;2.40;;;20.60;1.00;;;;;;5077232;28;20629;-77
2022/05/17 03:45:54;;;;;;;6.73;2.40;;;20.70;1.00;;;;;;5075452;28;20167;-84
2022/05/17 03:48:20;;;;;;;7.83;2.40;;;20.60;1.00;;;;;;5075539;28;20176;-84
2022/05/17 03:50:46;;;;;;;5.03;2.10;;;20.60;1.00;;;;;;5075797;28;20309;-79
2022/05/17 03:53:12;;;;;;;7.70;2.40;;;20.60;1.00;;;;;;5080262;28;20149;-77
2022/05/17 03:55:38;;;;;;;6.53;2.50;;;20.70;1.00;;;;;;5088896;28;20222;-77
2022/05/17 03:58:04;;;;;;;7.87;2.37;;;20.80;1.00;;;;;;5080529;28;20167;-85
2022/05/17 04:00:30;;;;;;;7.83;2.33;;;20.80;1.00;;;;;;5078394;28;20236;-79
2022/05/17 04:02:56;;;;;;;9.13;2.20;;;20.80;1.00;;;;;;5076434;28;20259;-84
2022/05/17 04:05:21;;;;;;;7.87;2.70;;;20.90;1.00;;;;;;5076031;28;20204;-82
2022/05/17 04:07:47;;;;;;;8.83;2.47;;;20.80;1.00;;;;;;5075234;28;20207;-78
2022/05/17 04:10:15;;;;;;;8.20;2.77;;;20.80;1.00;;;;;;5074729;28;20565;-86
2022/05/17 04:12:40;;;;;;;6.47;2.37;;;20.90;1.00;;;;;;5073359;28;20176;-84
2022/05/17 04:15:10;;;;;;;4.60;2.20;;;20.80;1.00;;;;;;5074723;28;20215;-85
2022/05/17 04:17:35;;;;;;;9.53;2.43;;;20.80;1.00;;;;;;5080551;28;20168;-78
2022/05/17 04:20:02;;;;;;;5.63;2.47;;;20.90;1.00;;;;;;5094596;28;20180;-79
2022/05/17 04:22:29;;;;;;;10.20;2.60;;;20.90;1.00;;;;;;5089481;28;20187;-85
2022/05/17 04:24:57;;;;;;;7.23;2.30;;;20.90;1.00;;;;;;5077748;28;20179;-85
2022/05/17 04:27:23;;;;;;;7.30;2.53;;;20.80;1.00;;;;;;5078206;28;20170;-80
2022/05/17 04:29:50;;;;;;;6.97;2.60;;;20.80;1.00;;;;;;5076339;28;20175;-81
2022/05/17 04:32:16;;;;;;;6.00;2.63;;;20.70;1.00;;;;;;5077679;28;20195;-84
2022/05/17 04:34:41;;;;;;;9.57;2.80;;;20.60;1.00;;;;;;5077176;28;20208;-78
2022/05/17 04:37:07;;;;;;;7.77;3.23;;;20.60;1.00;;;;;;5074319;28;20271;-85
2022/05/17 04:39:33;;;;;;;9.47;3.27;;;20.50;1.00;;;;;;5075878;28;20176;-81
2022/05/17 04:42:00;;;;;;;6.60;2.80;;;20.40;1.00;;;;;;5080385;28;20236;-80
2022/05/17 04:44:27;;;;;;;5.93;2.73;;;20.40;1.00;;;;;;5085764;28;20159;-81
2022/05/17 04:46:55;;;;;;;7.70;2.83;;;20.30;1.00;;;;;;5080173;28;20619;-83
2022/05/17 04:49:22;;;;;;;8.60;3.17;;;20.20;1.00;;;;;;5075902;28;20203;-83
2022/05/17 04:52:05;;;;;;;7.30;3.20;;;20.10;1.00;;;;;;5074776;28;20157;-87
2022/05/17 04:54:31;;;;;;;7.30;3.13;;;20.00;1.00;;;;;;5090244;28;20209;-80
2022/05/17 04:56:57;;;;;;;12.00;3.33;;;19.90;1.00;;;;;;5094084;28;20230;-80
2022/05/17 04:59:23;;;;;;;10.83;3.23;;;19.80;1.00;;;;;;5094486;28;20179;-78
2022/05/17 05:01:49;;;;;;;8.53;3.57;;;19.70;1.00;;;;;;5097080;28;20205;-85
2022/05/17 05:04:17;;;;;;;10.47;4.60;;;19.80;1.00;;;;;;5096425;28;20175;-78
2022/05/17 05:06:42;;;;;;;11.20;4.07;;;20.00;1.00;;;;;;5083264;28;20617;-80
2022/05/17 05:09:14;;;;;;;6.13;3.13;;;20.10;1.00;;;;;;5080352;28;20175;-82
2022/05/17 05:11:40;;;;;;;17.30;3.43;;;20.00;1.00;;;;;;5081389;28;20163;-81
2022/05/17 05:14:09;;;;;;;8.20;3.43;;;20.00;1.00;;;;;;5074935;28;20268;-84
2022/05/17 05:16:37;;;;;;;9.40;4.03;;;20.00;1.00;;;;;;5076186;28;20208;-81
2022/05/17 05:19:15;;;;;;;14.83;3.87;;;20.00;1.00;;;;;;5075675;28;20185;-85
2022/05/17 05:21:41;;;;;;;11.03;3.33;;;20.00;1.00;;;;;;5077792;28;20332;-81
2022/05/17 05:24:07;;;;;;;9.37;3.20;;;20.10;1.00;;;;;;5077338;28;20206;-78
2022/05/17 05:26:35;;;;;;;13.13;3.57;;;20.00;1.00;;;;;;5066398;28;20267;-87
2022/05/17 05:29:01;;;;;;;8.77;3.53;;;20.00;1.00;;;;;;5061574;28;20198;-83
2022/05/17 05:31:28;;;;;;;8.83;3.43;;;20.20;1.00;;;;;;5073422;28;20218;-78
2022/05/17 05:33:53;;;;;;;5.90;3.07;;;20.20;1.00;;;;;;5080143;28;20205;-82
2022/05/17 05:36:19;;;;;;;8.00;3.23;;;20.30;1.00;;;;;;5082072;28;20167;-87
2022/05/17 05:38:45;;;;;;;7.50;3.60;;;20.40;1.00;;;;;;5078628;28;20654;-84
2022/05/17 05:41:12;;;;;;;9.63;4.20;;;20.50;1.00;;;;;;5079635;28;20233;-80
2022/05/17 05:43:38;;;;;;;9.37;3.57;;;20.40;1.00;;;;;;5087051;28;20685;-81
2022/05/17 05:46:07;;;;;;;8.43;3.70;;;20.40;1.00;;;;;;5097337;28;20185;-85
2022/05/17 05:48:33;;;;;;;8.50;3.70;;;20.40;1.00;;;;;;5098637;28;20182;-79
2022/05/17 05:50:59;;;;;;;9.23;3.43;;;20.40;1.00;;;;;;5095400;28;20392;-80
2022/05/17 05:53:24;;;;;;;8.90;3.90;;;20.60;1.00;;;;;;5067087;28;20227;-81
2022/05/17 05:55:57;;;;;;;10.80;3.97;;;20.70;1.00;;;;;;5057465;28;20219;-80
2022/05/17 05:58:24;;;;;;;8.70;4.03;;;20.90;1.00;;;;;;5057075;28;20621;-80
2022/05/17 06:00:52;;;;;;;15.67;5.80;;;20.70;1.00;;;;;;5057724;28;20568;-86
2022/05/17 06:03:18;;;;;;;17.53;8.10;;;20.70;1.00;;;;;;5057972;28;20187;-88
2022/05/17 06:05:44;;;;;;;13.23;5.37;;;20.80;1.00;;;;;;5059625;28;20319;-84
2022/05/17 06:08:16;;;;;;;32.97;6.37;;;20.80;1.00;;;;;;5055922;28;20251;-82
2022/05/17 06:10:41;;;;;;;20.43;5.50;;;20.90;1.00;;;;;;5057734;28;20172;-82
2022/05/17 06:13:13;;;;;;;14.40;4.93;;;21.00;1.00;;;;;;5056718;28;20664;-85
2022/05/17 06:15:40;;;;;;;9.57;4.63;;;20.90;1.00;;;;;;5057283;28;20196;-81
2022/05/17 06:18:07;;;;;;;17.87;4.80;;;21.10;1.00;;;;;;5057137;28;20190;-84
2022/05/17 06:20:33;;;;;;;11.10;4.20;;;21.10;1.00;;;;;;5056973;28;20217;-83
2022/05/17 06:22:58;;;;;;;11.93;4.03;;;21.00;1.00;;;;;;5056863;28;20164;-81
2022/05/17 06:25:25;;;;;;;10.80;4.17;;;20.80;1.00;;;;;;5058480;28;20258;-84
2022/05/17 06:27:52;;;;;;;9.33;4.33;;;21.00;1.00;;;;;;5059267;28;20172;-79
2022/05/17 06:30:18;;;;;;;8.87;4.10;;;21.10;1.00;;;;;;5056563;28;20176;-82
2022/05/17 06:32:44;;;;;;;9.43;4.63;;;21.30;1.00;;;;;;5056855;28;20169;-81
2022/05/17 06:35:11;;;;;;;8.30;4.60;;;21.40;1.00;;;;;;5055357;28;20220;-81
2022/05/17 06:37:37;;;;;;;6.67;4.13;;;21.40;1.00;;;;;;5055967;28;20178;-84
2022/05/17 06:40:07;;;;;;;15.50;5.40;;;21.50;1.00;;;;;;5056156;28;20308;-82
2022/05/17 06:42:33;;;;;;;13.73;4.77;;;21.40;1.00;;;;;;5056000;28;20176;-79
2022/05/17 06:44:59;;;;;;;11.37;4.23;;;21.40;1.00;;;;;;5059355;28;20300;-84
2022/05/17 06:47:26;;;;;;;10.97;4.80;;;21.40;1.00;;;;;;5059487;28;20544;-82
2022/05/17 06:49:57;;;;;;;10.20;4.40;;;21.40;1.00;;;;;;5059344;28;20185;-82
2022/05/17 06:52:24;;;;;;;8.43;4.27;;;21.50;1.00;;;;;;5058882;28;20164;-79
2022/05/17 06:54:51;;;;;;;10.63;4.83;;;21.50;1.00;;;;;;5059240;28;20201;-80
2022/05/17 06:57:17;;;;;;;11.70;4.53;;;21.50;1.00;;;;;;5056625;28;20172;-84
2022/05/17 06:59:45;;;;;;;10.43;5.13;;;21.60;1.00;;;;;;5057613;28;20240;-81
2022/05/17 07:02:11;;;;;;;9.60;4.80;;;21.60;1.00;;;;;;5060004;28;20185;-80
2022/05/17 07:04:39;;;;;;;9.63;4.80;;;21.70;1.00;;;;;;5059750;28;20180;-84
2022/05/17 07:07:06;;;;;;;10.17;4.67;;;21.80;1.00;;;;;;5056635;28;20169;-79
2022/05/17 07:09:34;;;;;;;8.53;4.23;;;21.90;1.00;;;;;;5060815;28;20236;-81
2022/05/17 07:14:44;;;;;;;13.00;5.00;;;22.10;1.00;;;;;;5064339;28;20203;-81
2022/05/17 07:17:16;;;;;;;14.20;5.30;;;22.10;1.00;;;;;;5063223;28;20257;-81
2022/05/17 07:19:43;;;;;;;13.67;5.57;;;22.10;1.00;;;;;;5068447;28;20213;-80
2022/05/17 07:22:10;;;;;;;11.47;4.77;;;21.90;1.00;;;;;;5083942;28;20169;-79
2022/05/17 07:24:36;;;;;;;10.37;5.30;;;21.80;1.00;;;;;;5090806;28;20177;-83
2022/05/17 07:27:04;;;;;;;13.83;5.17;;;21.90;1.00;;;;;;5082698;28;20164;-80
2022/05/17 07:29:30;;;;;;;13.67;5.13;;;22.10;1.00;;;;;;5077500;28;20173;-85
2022/05/17 07:32:03;;;;;;;11.90;4.63;;;22.30;1.00;;;;;;5079605;28;20185;-81
2022/05/17 07:34:28;;;;;;;15.90;4.90;;;22.60;1.00;;;;;;5078146;28;20287;-84
2022/05/17 07:36:55;;;;;;;9.73;4.20;;;22.80;1.00;;;;;;5077857;28;20209;-82
2022/05/17 07:39:21;;;;;;;10.57;4.70;;;22.80;1.00;;;;;;5079898;28;20197;-83
2022/05/17 07:41:48;;;;;;;11.57;4.90;;;22.90;1.00;;;;;;5078703;28;20522;-84
2022/05/17 07:44:14;;;;;;;10.83;4.67;;;23.10;1.00;;;;;;5078404;28;20163;-83
2022/05/17 07:46:40;;;;;;;7.73;4.23;;;23.20;1.00;;;;;;5089351;28;20188;-83
2022/05/17 07:49:06;;;;;;;11.80;4.90;;;23.30;1.00;;;;;;5085571;28;20187;-84
2022/05/17 07:51:35;;;;;;;12.80;4.70;;;23.50;99.90;;;;;;5084746;28;20171;-80
2022/05/17 07:54:01;;;;;;;15.23;5.07;;;23.30;1.00;;;;;;5080212;28;20670;-82
2022/05/17 07:56:28;;;;;;;6.43;4.33;;;23.20;1.00;;;;;;5077592;28;20254;-82
2022/05/17 07:58:55;;;;;;;9.30;4.60;;;23.10;1.00;;;;;;5078226;28;20206;-80
2022/05/17 08:01:21;;;;;;;6.70;4.37;;;22.80;1.00;;;;;;5096447;28;20179;-80
2022/05/17 08:03:47;;;;;;;7.20;4.30;;;22.80;1.00;;;;;;5093209;28;20175;-80
2022/05/17 08:06:13;;;;;;;8.67;5.03;;;22.90;1.00;;;;;;5080444;28;20631;-81
2022/05/17 08:08:45;;;;;;;14.93;4.90;;;22.90;1.00;;;;;;5080889;28;20163;-81
2022/05/17 08:11:12;;;;;;;11.33;5.07;;;23.20;1.00;;;;;;5081330;28;20195;-80
2022/05/17 08:13:41;;;;;;;13.50;5.80;;;23.00;1.00;;;;;;5078598;28;20635;-84
2022/05/17 08:16:37;;;;;;;12.03;5.73;;;23.00;1.00;;;;;;5076030;28;20275;-80
2022/05/17 08:19:06;;;;;;;9.73;5.33;;;23.10;1.00;;;;;;5078456;28;20185;-82
2022/05/17 08:21:33;;;;;;;9.77;5.33;;;22.80;1.00;;;;;;5073623;28;20171;-81
2022/05/17 08:23:59;;;;;;;16.30;5.07;;;22.80;1.00;;;;;;5069984;28;20589;-78
2022/05/17 08:29:12;;;;;;;9.30;5.17;;;23.10;1.00;;;;;;5055255;28;20226;-80
2022/05/17 08:31:37;;;;;;;10.77;5.07;;;23.40;1.00;;;;;;5055089;28;20214;-84
2022/05/17 08:34:03;;;;;;;10.57;5.20;;;23.70;1.00;;;;;;5053993;28;20671;-80
2022/05/17 08:36:30;;;;;;;7.93;5.10;;;23.80;1.00;;;;;;5055052;28;20517;-80
2022/05/17 08:38:56;;;;;;;10.93;5.23;;;24.00;99.90;;;;;;5053203;28;20179;-79
2022/05/17 08:41:26;;;;;;;9.43;5.17;;;24.20;99.90;;;;;;5055151;28;20160;-80
2022/05/17 08:43:54;;;;;;;10.90;5.17;;;24.20;99.90;;;;;;5054729;28;20177;-81
2022/05/17 08:46:43;;;;;;;8.57;4.83;;;24.20;99.90;;;;;;5053951;28;20172;-83
2022/05/17 08:49:41;;;;;;;11.90;6.17;;;24.30;99.90;;;;;;5054529;28;20181;-85
2022/05/17 08:52:08;;;;;;;11.10;5.07;;;24.40;99.90;;;;;;5054238;28;20716;-85
2022/05/17 08:54:53;;;;;;;8.87;5.37;;;24.40;99.90;;;;;;5054188;28;20204;-85
2022/05/17 08:57:35;;;;;;;9.33;5.23;;;24.40;99.90;;;;;;5055969;28;20172;-84
2022/05/17 09:00:18;;;;;;;10.93;4.97;;;24.60;97.40;;;;;;5066314;28;20179;-80
2022/05/17 09:02:51;;;;;;;8.13;4.90;;;24.90;1.00;;;;;;5059330;28;20271;-85
2022/05/17 09:05:29;;;;;;;13.53;5.30;;;24.80;1.00;;;;;;5052419;28;20165;-84
2022/05/17 09:08:11;;;;;;;11.17;5.13;;;24.90;1.00;;;;;;5054597;28;20168;-86
2022/05/17 09:10:40;;;;;;;10.27;4.83;;;25.00;1.00;;;;;;5053216;28;20248;-85
2022/05/17 09:13:14;;;;;;;8.83;4.83;;;25.00;99.90;;;;;;5054931;28;20176;-81
2022/05/17 09:15:40;;;;;;;10.70;5.50;;;24.80;1.00;;;;;;5053078;28;20302;-84
2022/05/17 09:18:10;;;;;;;11.90;4.47;;;24.80;1.00;;;;;;5036345;28;20660;-81
2022/05/17 09:20:37;;;;;;;12.47;6.47;;;24.90;1.00;;;;;;5062479;28;20170;-80
2022/05/17 09:23:04;;;;;;;10.87;4.40;;;25.10;1.00;;;;;;5059941;28;20171;-84
2022/05/17 09:26:03;;;;;;;9.67;4.50;;;25.00;1.00;;;;;;5059313;28;20169;-84
2022/05/17 09:28:48;;;;;;;9.40;4.10;;;25.20;99.90;;;;;;5053128;28;20173;-84
2022/05/17 09:31:35;;;;;;;9.80;4.67;;;25.10;1.00;;;;;;5054656;28;20184;-81
2022/05/17 09:34:07;;;;;;;8.27;4.33;;;25.00;99.90;;;;;;5054983;28;20196;-81
2022/05/17 09:36:43;;;;;;;8.00;4.40;;;25.00;1.00;;;;;;5054803;28;20179;-81
2022/05/17 09:39:09;;;;;;;8.67;4.00;;;25.10;99.90;;;;;;5054211;28;20165;-85
2022/05/17 09:41:39;;;;;;;7.83;3.97;;;25.30;99.90;;;;;;5055198;28;20255;-83
2022/05/17 09:44:26;;;;;;;7.93;3.90;;;25.40;1.00;;;;;;5057572;28;20187;-80
2022/05/17 09:46:59;;;;;;;7.93;3.60;;;25.40;99.90;;;;;;5058708;28;20239;-81
2022/05/17 09:52:35;;;;;;;7.20;3.20;;;25.30;1.00;;;;;;5074799;28;20181;-79
2022/05/17 09:55:21;;;;;;;6.30;3.07;;;25.50;99.90;;;;;;5073539;28;20205;-82
2022/05/17 09:57:57;;;;;;;8.90;3.87;;;25.60;99.90;;;;;;5075498;28;20198;-79
2022/05/17 10:00:31;;;;;;;9.07;3.63;;;25.60;99.90;;;;;;5067137;28;20181;-80
2022/05/17 10:03:05;;;;;;;14.07;4.03;;;25.60;99.90;;;;;;5060140;28;20192;-80
2022/05/17 10:05:44;;;;;;;8.27;3.67;;;25.70;99.90;;;;;;5062878;28;20214;-80
2022/05/17 10:08:13;;;;;;;8.70;3.77;;;25.80;28.50;;;;;;5054889;28;20629;-83
2022/05/17 10:10:46;;;;;;;8.37;3.63;;;25.80;1.00;;;;;;5054579;28;20165;-81
2022/05/17 10:13:21;;;;;;;8.50;3.60;;;25.80;99.90;;;;;;5056520;28;20154;-79
2022/05/17 10:15:53;;;;;;;6.03;2.80;;;25.90;92.70;;;;;;5056125;28;20222;-80
2022/05/17 10:18:41;;;;;;;7.03;3.40;;;26.00;99.90;;;;;;5056699;28;20177;-83
2022/05/17 10:21:23;;;;;;;7.20;3.10;;;26.10;1.00;;;;;;5058000;28;20180;-82
2022/05/17 10:24:12;;;;;;;11.40;3.23;;;26.20;99.90;;;;;;5061171;28;20656;-84
2022/05/17 10:26:46;;;;;;;10.27;2.83;;;26.30;99.90;;;;;;5061279;28;20235;-85
2022/05/17 10:29:25;;;;;;;7.57;3.37;;;26.40;1.00;;;;;;5065212;28;20629;-79
2022/05/17 10:32:06;;;;;;;7.40;3.10;;;26.50;1.00;;;;;;5069695;28;20250;-84
2022/05/17 10:35:00;;;;;;;7.00;2.93;;;26.50;1.00;;;;;;5069723;28;20235;-79
2022/05/17 10:37:33;;;;;;;8.50;3.30;;;26.70;99.90;;;;;;5072656;28;20260;-78
2022/05/17 10:40:10;;;;;;;4.93;2.60;;;26.60;99.90;;;;;;5067002;28;20590;-81
2022/05/17 10:42:40;;;;;;;7.47;2.73;;;26.60;99.90;;;;;;5062943;28;20167;-86
2022/05/17 10:45:22;;;;;;;10.03;2.90;;;26.80;99.90;;;;;;5057002;28;20161;-80
2022/05/17 10:47:58;;;;;;;16.00;3.97;;;26.70;99.90;;;;;;5057286;28;20175;-85
2022/05/17 10:50:57;;;;;;;7.43;3.10;;;26.80;99.90;;;;;;5068140;28;20164;-83
2022/05/17 10:53:41;;;;;;;6.87;2.80;;;26.90;99.90;;;;;;5069203;28;20176;-85
2022/05/17 10:56:31;;;;;;;6.17;2.57;;;26.90;99.90;;;;;;5063039;28;21501;-83
2022/05/17 10:59:44;;;;;;;9.40;2.90;;;26.80;99.90;;;;;;5074404;28;20184;-80
2022/05/17 11:02:30;;;;;;;6.00;2.90;;;27.00;66.20;;;;;;5074231;28;20208;-81
2022/05/17 11:04:59;;;;;;;6.90;2.63;;;27.20;1.00;;;;;;5062500;28;20252;-83
2022/05/17 11:07:37;;;;;;;9.77;2.57;;;27.30;99.90;;;;;;5059151;28;20173;-79
2022/05/17 11:10:51;;;;;;;11.83;2.53;;;27.40;99.90;;;;;;5057939;28;20606;-83
2022/05/17 11:13:35;;;;;;;7.93;2.83;;;27.60;1.00;;;;;;5057536;28;20153;-85
2022/05/17 11:16:22;;;;;;;13.40;2.60;;;27.80;1.00;;;;;;5054961;28;20250;-82
2022/05/17 11:19:04;;;;;;;7.87;2.50;;;27.60;1.00;;;;;;5056693;28;20175;-81
2022/05/17 11:21:32;;;;;;;8.90;2.20;;;27.40;1.00;;;;;;5056860;28;20176;-85
2022/05/17 11:24:31;;;;;;;7.90;2.40;;;27.30;99.90;;;;;;5058177;28;20691;-81
2022/05/17 11:27:21;;;;;;;5.90;2.17;;;27.20;99.90;;;;;;5056430;28;20644;-85
2022/05/17 11:30:11;;;;;;;8.57;2.10;;;27.20;99.90;;;;;;5056656;28;20180;-86
2022/05/17 11:32:42;;;;;;;5.03;2.07;;;27.20;99.90;;;;;;5056546;28;20249;-85
2022/05/17 11:35:26;;;;;;;10.97;2.27;;;27.20;99.90;;;;;;5057301;28;20642;-80
2022/05/17 11:37:54;;;;;;;5.63;2.00;;;27.30;99.90;;;;;;5058422;28;20184;-81
2022/05/17 11:40:47;;;;;;;8.33;2.40;;;27.50;99.90;;;;;;5060528;28;20272;-82
2022/05/17 11:46:03;;;;;;;5.63;2.07;;;27.50;99.90;;;;;;5056463;28;20555;-81
2022/05/17 11:49:12;;;;;;;7.73;1.83;;;27.40;99.90;;;;;;5055786;28;20652;-86
2022/05/17 11:51:58;;;;;;;8.57;1.90;;;27.30;99.90;;;;;;5046185;28;20185;-82
2022/05/17 11:54:45;;;;;;;7.50;1.90;;;27.30;49.70;;;;;;5051119;28;20218;-82
2022/05/17 11:57:17;;;;;;;7.43;2.20;;;27.20;6.60;;;;;;5054406;28;20169;-83
2022/05/17 11:59:53;;;;;;;7.17;1.50;;;27.20;1.00;;;;;;5065913;28;20227;-81
2022/05/17 12:02:19;;;;;;;5.07;1.70;;;27.40;1.00;;;;;;5056787;28;20196;-81
2022/05/17 12:04:46;;;;;;;5.33;1.73;;;27.50;1.00;;;;;;5056047;28;20183;-85
2022/05/17 12:07:29;;;;;;;3.73;1.40;;;27.80;1.00;;;;;;5054449;28;20181;-85
2022/05/17 12:10:14;;;;;;;3.17;1.30;;;28.00;1.00;;;;;;5056001;28;20174;-86
2022/05/17 12:12:55;;;;;;;6.63;1.73;;;28.20;1.00;;;;;;5056063;28;20214;-84
2022/05/17 12:15:34;;;;;;;4.27;1.47;;;28.20;1.00;;;;;;5056200;28;20682;-85
2022/05/17 12:18:25;;;;;;;4.57;1.30;;;28.20;1.00;;;;;;5053905;28;20173;-85
2022/05/17 12:21:02;;;;;;;5.03;1.47;;;28.30;1.00;;;;;;5054669;28;20262;-80
2022/05/17 12:23:39;;;;;;;5.80;1.53;;;28.10;1.00;;;;;;5054899;28;20719;-81
2022/05/17 12:26:14;;;;;;;2.90;1.10;;;28.10;1.00;;;;;;5054404;28;20153;-85
2022/05/17 12:28:49;;;;;;;4.07;1.10;;;28.20;1.00;;;;;;5059825;28;20187;-84
2022/05/17 12:31:28;;;;;;;4.10;1.20;;;28.40;1.00;;;;;;5053215;28;20221;-83
2022/05/17 12:33:56;;;;;;;5.45;1.13;;;28.40;1.00;;;;;;5054481;28;20176;-81
2022/05/17 12:36:27;;;;;;;4.18;1.27;;;28.30;1.00;;;;;;5054627;28;20179;-84
2022/05/17 12:44:47;;;;;;;5.50;1.40;;;28.60;1.00;;;;;;5055118;28;20626;-81
2022/05/17 12:47:29;;;;;;;6.70;1.27;;;28.80;1.00;;;;;;5055317;28;20172;-82
2022/05/17 12:49:59;;;;;;;2.17;1.20;;;28.70;1.00;;;;;;5055552;28;20176;-79
2022/05/17 12:52:32;;;;;;;5.05;1.30;;;28.50;1.00;;;;;;5055932;28;20345;-80
2022/05/17 12:55:09;;;;;;;3.85;1.33;;;28.50;1.00;;;;;;5058268;28;20552;-86
2022/05/17 12:57:38;;;;;;;2.97;1.40;;;28.60;1.00;;;;;;5057722;28;20233;-83
2022/05/17 13:00:31;;;;;;;3.85;1.40;;;28.60;1.00;;;;;;5055049;28;20695;-81
2022/05/17 13:03:03;;;;;;;2.55;1.20;;;28.70;1.00;;;;;;5052966;28;20230;-80
2022/05/17 13:05:33;;;;;;;4.47;1.40;;;28.40;1.00;;;;;;5052090;28;20564;-85
2022/05/17 13:08:01;;;;;;;2.72;1.17;;;28.50;1.00;;;;;;5053388;28;20169;-84
2022/05/17 13:10:27;;;;;;;6.97;1.38;;;28.50;1.00;;;;;;5053095;28;20202;-84
2022/05/17 13:12:53;;;;;;;5.03;1.35;;;28.70;1.00;;;;;;5054037;28;20172;-81
2022/05/17 13:15:20;;;;;;;8.48;1.42;;;28.80;1.00;;;;;;5058261;28;20216;-81
2022/05/17 13:17:50;;;;;;;5.28;1.45;;;28.80;1.00;;;;;;5056219;28;20241;-81
2022/05/17 13:20:28;;;;;;;4.35;1.75;;;28.70;1.00;;;;;;5053790;28;20165;-80
2022/05/17 13:22:55;;;;;;;6.55;1.60;;;28.80;1.00;;;;;;5054043;28;20161;-84
2022/05/17 13:25:26;;;;;;;6.25;1.63;;;28.80;1.00;;;;;;5054094;28;20161;-80
2022/05/17 13:27:54;;;;;;;6.22;1.70;;;28.80;1.00;;;;;;5053805;28;20586;-80
2022/05/17 13:30:31;;;;;;;7.45;1.40;;;29.00;1.00;;;;;;5053332;28;20189;-81
2022/05/17 13:32:58;;;;;;;4.80;1.75;;;29.10;1.00;;;;;;5052381;28;20275;-86